sensor_id;sensor_type;location;lat;lon;timestamp;pressure;altitude;pressure_sealevel;temperature;humidity
5879;BME280;2965;42.640;23.370;2023-07-31T04:02:22;94251.75;;;20.22;100.00
5879;BME280;2965;42.640;23.370;2023-07-31T04:04:47;94252.66;;;20.28;100.00
5879;BME280;2965;42.640;23.370;2023-07-31T04:07:13;94260.41;;;20.34;100.00
5879;BME280;2965;42.640;23.370;2023-07-31T04:09:38;94259.25;;;20.25;100.00
5879;BME280;2965;42.640;23.370;2023-07-31T04:12:03;94256.59;;;20.25;100.00
5879;BME280;2965;42.640;23.370;2023-07-31T04:14:29;94260.84;;;20.26;100.00
5879;BME280;2965;42.640;23.370;2023-07-31T04:16:54;94266.41;;;20.25;100.00
5879;BME280;2965;42.640;23.370;2023-07-31T04:19:19;94260.78;;;20.21;100.00
5879;BME280;2965;42.640;23.370;2023-07-31T04:21:45;94270.13;;;20.24;100.00
5879;BME280;2965;42.640;23.370;2023-07-31T04:24:10;94263.19;;;20.23;100.00
5879;BME280;2965;42.640;23.370;2023-07-31T04:26:35;94268.50;;;20.23;100.00
5879;BME280;2965;42.640;23.370;2023-07-31T04:29:01;94262.44;;;20.27;100.00
5879;BME280;2965;42.640;23.370;2023-07-31T04:31:26;94266.72;;;20.28;100.00
5879;BME280;2965;42.640;23.370;2023-07-31T04:33:52;94258.31;;;20.36;100.00
5879;BME280;2965;42.640;23.370;2023-07-31T04:36:17;94267.63;;;20.39;100.00
5879;BME280;2965;42.640;23.370;2023-07-31T04:38:42;94272.75;;;20.46;100.00
5879;BME280;2965;42.640;23.370;2023-07-31T04:41:08;94270.16;;;20.51;100.00
5879;BME280;2965;42.640;23.370;2023-07-31T04:43:33;94274.69;;;20.50;100.00
5879;BME280;2965;42.640;23.370;2023-07-31T04:45:59;94267.25;;;20.52;100.00
5879;BME280;2965;42.640;23.370;2023-07-31T04:48:24;94267.56;;;20.56;100.00
5879;BME280;2965;42.640;23.370;2023-07-31T04:50:49;94272.66;;;20.62;100.00
5879;BME280;2965;42.640;23.370;2023-07-31T04:53:15;94272.31;;;20.54;100.00
5879;BME280;2965;42.640;23.370;2023-07-31T04:55:40;94263.66;;;20.63;100.00
5879;BME280;2965;42.640;23.370;2023-07-31T04:58:06;94267.09;;;20.64;100.00
5879;BME280;2965;42.640;23.370;2023-07-31T05:00:31;94250.59;;;20.62;100.00
5879;BME280;2965;42.640;23.370;2023-07-31T05:02:57;94255.72;;;20.69;100.00
5879;BME280;2965;42.640;23.370;2023-07-31T05:05:22;94262.28;;;20.61;100.00
5879;BME280;2965;42.640;23.370;2023-07-31T05:07:48;94260.25;;;20.68;100.00
5879;BME280;2965;42.640;23.370;2023-07-31T05:10:13;94268.00;;;20.75;100.00
5879;BME280;2965;42.640;23.370;2023-07-31T05:12:38;94265.63;;;20.78;100.00
5879;BME280;2965;42.640;23.370;2023-07-31T05:15:04;94259.03;;;20.81;100.00
5879;BME280;2965;42.640;23.370;2023-07-31T05:17:30;94252.09;;;20.80;100.00
5879;BME280;2965;42.640;23.370;2023-07-31T05:19:55;94249.44;;;20.80;100.00
5879;BME280;2965;42.640;23.370;2023-07-31T05:22:20;94243.31;;;20.79;100.00
5879;BME280;2965;42.640;23.370;2023-07-31T05:24:46;94253.00;;;20.90;100.00
5879;BME280;2965;42.640;23.370;2023-07-31T05:27:11;94254.66;;;21.02;100.00
5879;BME280;2965;42.640;23.370;2023-07-31T05:29:37;94244.06;;;21.07;100.00
5879;BME280;2965;42.640;23.370;2023-07-31T05:32:03;94251.03;;;21.13;100.00
5879;BME280;2965;42.640;23.370;2023-07-31T05:34:29;94255.81;;;21.16;100.00
5879;BME280;2965;42.640;23.370;2023-07-31T05:36:54;94247.81;;;21.11;100.00
5879;BME280;2965;42.640;23.370;2023-07-31T05:39:19;94251.03;;;21.13;100.00
5879;BME280;2965;42.640;23.370;2023-07-31T05:41:45;94255.25;;;21.09;100.00
5879;BME280;2965;42.640;23.370;2023-07-31T05:44:11;94248.81;;;21.00;100.00
5879;BME280;2965;42.640;23.370;2023-07-31T05:46:36;94245.63;;;21.03;100.00
5879;BME280;2965;42.640;23.370;2023-07-31T05:49:02;94244.13;;;21.12;100.00
5879;BME280;2965;42.640;23.370;2023-07-31T05:51:27;94243.09;;;21.18;100.00
5879;BME280;2965;42.640;23.370;2023-07-31T05:53:53;94252.69;;;21.24;100.00
5879;BME280;2965;42.640;23.370;2023-07-31T05:56:18;94249.38;;;21.34;100.00
5879;BME280;2965;42.640;23.370;2023-07-31T05:58:44;94262.16;;;21.42;100.00
5879;BME280;2965;42.640;23.370;2023-07-31T06:01:09;94262.25;;;21.52;100.00
5879;BME280;2965;42.640;23.370;2023-07-31T06:03:34;94260.88;;;21.50;100.00
5879;BME280;2965;42.640;23.370;2023-07-31T06:06:00;94265.13;;;21.46;100.00
5879;BME280;2965;42.640;23.370;2023-07-31T06:08:25;94272.78;;;21.37;100.00
5879;BME280;2965;42.640;23.370;2023-07-31T06:10:51;94260.81;;;21.39;100.00
5879;BME280;2965;42.640;23.370;2023-07-31T06:13:16;94256.84;;;21.42;100.00
5879;BME280;2965;42.640;23.370;2023-07-31T06:15:41;94263.53;;;21.50;100.00
5879;BME280;2965;42.640;23.370;2023-07-31T06:18:07;94251.34;;;21.54;100.00
5879;BME280;2965;42.640;23.370;2023-07-31T06:20:33;94251.38;;;21.64;100.00
5879;BME280;2965;42.640;23.370;2023-07-31T06:22:59;94257.31;;;21.81;100.00
5879;BME280;2965;42.640;23.370;2023-07-31T06:25:24;94259.03;;;22.03;100.00
5879;BME280;2965;42.640;23.370;2023-07-31T06:27:50;94243.09;;;22.13;100.00
5879;BME280;2965;42.640;23.370;2023-07-31T06:30:15;94247.41;;;22.19;100.00
5879;BME280;2965;42.640;23.370;2023-07-31T06:32:41;94234.59;;;22.21;100.00
5879;BME280;2965;42.640;23.370;2023-07-31T06:35:06;94242.59;;;22.16;100.00
5879;BME280;2965;42.640;23.370;2023-07-31T06:37:32;94237.25;;;22.16;100.00
5879;BME280;2965;42.640;23.370;2023-07-31T06:39:57;94240.69;;;22.11;100.00
5879;BME280;2965;42.640;23.370;2023-07-31T06:42:23;94240.41;;;22.08;100.00
5879;BME280;2965;42.640;23.370;2023-07-31T06:44:48;94249.97;;;22.09;100.00
5879;BME280;2965;42.640;23.370;2023-07-31T06:47:14;94255.22;;;21.83;100.00
5879;BME280;2965;42.640;23.370;2023-07-31T06:49:39;94244.56;;;21.83;100.00
5879;BME280;2965;42.640;23.370;2023-07-31T06:52:05;94251.03;;;21.98;100.00
5879;BME280;2965;42.640;23.370;2023-07-31T06:54:30;94250.53;;;22.11;100.00
5879;BME280;2965;42.640;23.370;2023-07-31T06:56:56;94257.44;;;22.02;100.00
5879;BME280;2965;42.640;23.370;2023-07-31T06:59:21;94258.19;;;21.92;100.00
5879;BME280;2965;42.640;23.370;2023-07-31T07:01:46;94263.22;;;21.88;100.00
5879;BME280;2965;42.640;23.370;2023-07-31T07:04:12;94264.03;;;21.89;100.00
5879;BME280;2965;42.640;23.370;2023-07-31T07:06:37;94253.88;;;21.86;100.00
5879;BME280;2965;42.640;23.370;2023-07-31T07:09:02;94249.91;;;21.83;100.00
5879;BME280;2965;42.640;23.370;2023-07-31T07:11:28;94265.91;;;21.94;100.00
5879;BME280;2965;42.640;23.370;2023-07-31T07:13:53;94252.88;;;21.97;100.00
5879;BME280;2965;42.640;23.370;2023-07-31T07:16:19;94245.19;;;22.06;100.00
5879;BME280;2965;42.640;23.370;2023-07-31T07:18:44;94257.00;;;22.20;100.00
5879;BME280;2965;42.640;23.370;2023-07-31T07:21:10;94246.84;;;22.22;100.00
5879;BME280;2965;42.640;23.370;2023-07-31T07:23:39;94247.41;;;22.19;100.00
5879;BME280;2965;42.640;23.370;2023-07-31T07:26:05;94255.09;;;22.15;100.00
5879;BME280;2965;42.640;23.370;2023-07-31T07:28:30;94250.84;;;22.14;100.00
5879;BME280;2965;42.640;23.370;2023-07-31T07:30:55;94257.50;;;22.12;100.00
5879;BME280;2965;42.640;23.370;2023-07-31T07:33:21;94263.19;;;22.36;100.00
5879;BME280;2965;42.640;23.370;2023-07-31T07:35:46;94260.22;;;22.32;100.00
5879;BME280;2965;42.640;23.370;2023-07-31T07:38:13;94252.75;;;22.29;100.00
5879;BME280;2965;42.640;23.370;2023-07-31T07:40:40;94261.31;;;22.41;100.00
5879;BME280;2965;42.640;23.370;2023-07-31T07:43:05;94254.13;;;22.57;100.00
5879;BME280;2965;42.640;23.370;2023-07-31T07:45:30;94276.31;;;22.73;100.00
5879;BME280;2965;42.640;23.370;2023-07-31T07:47:56;94280.31;;;22.76;100.00
5879;BME280;2965;42.640;23.370;2023-07-31T07:50:21;94270.47;;;22.81;100.00
5879;BME280;2965;42.640;23.370;2023-07-31T07:52:46;94272.03;;;22.72;100.00
5879;BME280;2965;42.640;23.370;2023-07-31T07:55:12;94275.25;;;22.84;100.00
5879;BME280;2965;42.640;23.370;2023-07-31T07:57:37;94280.63;;;22.95;100.00
5879;BME280;2965;42.640;23.370;2023-07-31T08:00:03;94281.41;;;22.85;100.00
5879;BME280;2965;42.640;23.370;2023-07-31T08:02:28;94273.69;;;22.94;100.00
5879;BME280;2965;42.640;23.370;2023-07-31T08:04:53;94279.03;;;22.99;100.00
5879;BME280;2965;42.640;23.370;2023-07-31T08:07:19;94267.84;;;23.07;100.00
5879;BME280;2965;42.640;23.370;2023-07-31T08:09:44;94260.09;;;23.26;100.00
5879;BME280;2965;42.640;23.370;2023-07-31T08:12:09;94261.41;;;23.44;100.00
5879;BME280;2965;42.640;23.370;2023-07-31T08:14:35;94270.19;;;23.49;100.00
5879;BME280;2965;42.640;23.370;2023-07-31T08:17:01;94269.69;;;23.32;100.00
5879;BME280;2965;42.640;23.370;2023-07-31T08:19:27;94269.69;;;23.32;100.00
5879;BME280;2965;42.640;23.370;2023-07-31T08:21:52;94263.53;;;23.31;100.00
5879;BME280;2965;42.640;23.370;2023-07-31T08:24:17;94272.09;;;23.44;100.00
5879;BME280;2965;42.640;23.370;2023-07-31T08:26:44;94267.81;;;23.48;100.00
5879;BME280;2965;42.640;23.370;2023-07-31T08:29:09;94268.31;;;23.60;100.00
5879;BME280;2965;42.640;23.370;2023-07-31T08:31:34;94257.38;;;23.56;100.00
5879;BME280;2965;42.640;23.370;2023-07-31T08:34:00;94262.44;;;23.63;100.00
5879;BME280;2965;42.640;23.370;2023-07-31T08:36:26;94265.31;;;23.97;100.00
5879;BME280;2965;42.640;23.370;2023-07-31T08:38:51;94265.84;;;23.94;100.00
5879;BME280;2965;42.640;23.370;2023-07-31T08:41:17;94261.34;;;23.79;100.00
5879;BME280;2965;42.640;23.370;2023-07-31T08:43:44;94263.66;;;24.06;100.00
5879;BME280;2965;42.640;23.370;2023-07-31T08:46:10;94262.88;;;24.06;100.00
5879;BME280;2965;42.640;23.370;2023-07-31T08:48:37;94263.41;;;24.03;100.00
5879;BME280;2965;42.640;23.370;2023-07-31T08:51:03;94267.13;;;24.12;100.00
5879;BME280;2965;42.640;23.370;2023-07-31T08:53:29;94262.25;;;24.24;100.00
5879;BME280;2965;42.640;23.370;2023-07-31T08:55:54;94267.50;;;24.50;100.00
5879;BME280;2965;42.640;23.370;2023-07-31T08:58:22;94267.19;;;24.56;100.00
5879;BME280;2965;42.640;23.370;2023-07-31T09:00:49;94262.88;;;24.65;100.00
5879;BME280;2965;42.640;23.370;2023-07-31T09:03:17;94265.16;;;24.82;100.00
5879;BME280;2965;42.640;23.370;2023-07-31T09:05:46;94262.34;;;25.08;100.00
5879;BME280;2965;42.640;23.370;2023-07-31T09:08:20;94260.03;;;25.30;100.00
5879;BME280;2965;42.640;23.370;2023-07-31T09:10:46;94271.78;;;24.95;97.34
5879;BME280;2965;42.640;23.370;2023-07-31T09:13:13;94269.44;;;24.88;97.96
5879;BME280;2965;42.640;23.370;2023-07-31T09:15:40;94264.06;;;24.88;96.98
5879;BME280;2965;42.640;23.370;2023-07-31T09:18:07;94258.69;;;24.94;92.55
5879;BME280;2965;42.640;23.370;2023-07-31T09:20:33;94250.06;;;24.97;90.67
5879;BME280;2965;42.640;23.370;2023-07-31T09:23:12;94258.31;;;25.05;93.63
5879;BME280;2965;42.640;23.370;2023-07-31T09:25:38;94249.78;;;25.03;89.00
5879;BME280;2965;42.640;23.370;2023-07-31T09:28:08;94249.47;;;25.10;88.28
5879;BME280;2965;42.640;23.370;2023-07-31T09:33:09;94246.28;;;25.42;86.54
5879;BME280;2965;42.640;23.370;2023-07-31T09:35:35;94240.00;;;25.52;88.74
5879;BME280;2965;42.640;23.370;2023-07-31T09:38:11;94233.88;;;25.75;89.25
5879;BME280;2965;42.640;23.370;2023-07-31T09:40:38;94235.16;;;26.07;92.16
5879;BME280;2965;42.640;23.370;2023-07-31T09:43:12;94236.63;;;26.18;94.77
5879;BME280;2965;42.640;23.370;2023-07-31T09:45:39;94235.75;;;26.04;90.48
5879;BME280;2965;42.640;23.370;2023-07-31T09:48:23;94234.81;;;26.13;93.72
5879;BME280;2965;42.640;23.370;2023-07-31T09:50:50;94236.16;;;26.11;88.08
5879;BME280;2965;42.640;23.370;2023-07-31T09:53:16;94227.63;;;26.09;86.18
5879;BME280;2965;42.640;23.370;2023-07-31T09:55:42;94228.94;;;25.87;88.21
5879;BME280;2965;42.640;23.370;2023-07-31T09:58:10;94224.06;;;25.65;94.88
5879;BME280;2965;42.640;23.370;2023-07-31T10:00:36;94220.41;;;26.28;91.51
5879;BME280;2965;42.640;23.370;2023-07-31T10:03:05;94220.38;;;26.71;87.13
5879;BME280;2965;42.640;23.370;2023-07-31T10:05:34;94216.06;;;26.32;84.64
5879;BME280;2965;42.640;23.370;2023-07-31T10:08:00;94226.94;;;26.22;86.30
5879;BME280;2965;42.640;23.370;2023-07-31T10:10:26;94232.53;;;26.26;86.42
5879;BME280;2965;42.640;23.370;2023-07-31T10:12:53;94223.22;;;26.18;82.78
5879;BME280;2965;42.640;23.370;2023-07-31T10:15:19;94217.66;;;26.33;82.92
5879;BME280;2965;42.640;23.370;2023-07-31T10:17:49;94218.59;;;26.24;87.98
5879;BME280;2965;42.640;23.370;2023-07-31T10:20:15;94212.88;;;26.30;87.30
5879;BME280;2965;42.640;23.370;2023-07-31T10:22:44;94215.44;;;26.40;87.55
5879;BME280;2965;42.640;23.370;2023-07-31T10:25:11;94217.91;;;26.75;84.35
5879;BME280;2965;42.640;23.370;2023-07-31T10:27:38;94209.13;;;26.69;78.93
5879;BME280;2965;42.640;23.370;2023-07-31T10:30:08;94208.00;;;27.08;77.83
5879;BME280;2965;42.640;23.370;2023-07-31T10:32:35;94199.19;;;27.54;73.68
5879;BME280;2965;42.640;23.370;2023-07-31T10:35:03;94195.91;;;27.57;72.80
5879;BME280;2965;42.640;23.370;2023-07-31T10:37:39;94215.22;;;26.94;75.00
5879;BME280;2965;42.640;23.370;2023-07-31T10:40:26;94201.78;;;26.94;75.35
5879;BME280;2965;42.640;23.370;2023-07-31T10:42:54;94197.44;;;27.30;75.39
5879;BME280;2965;42.640;23.370;2023-07-31T10:45:25;94193.56;;;27.04;74.98
5879;BME280;2965;42.640;23.370;2023-07-31T10:48:00;94191.63;;;26.58;76.77
5879;BME280;2965;42.640;23.370;2023-07-31T10:50:27;94196.72;;;26.73;80.14
5879;BME280;2965;42.640;23.370;2023-07-31T10:52:54;94190.69;;;27.19;75.39
5879;BME280;2965;42.640;23.370;2023-07-31T10:57:57;94185.19;;;27.84;74.25
5879;BME280;2965;42.640;23.370;2023-07-31T11:05:46;94182.97;;;27.59;68.70
5879;BME280;2965;42.640;23.370;2023-07-31T11:11:04;94179.63;;;27.81;66.54
5879;BME280;2965;42.640;23.370;2023-07-31T11:13:39;94168.22;;;27.42;67.48
5879;BME280;2965;42.640;23.370;2023-07-31T11:16:04;94177.22;;;27.79;68.79
5879;BME280;2965;42.640;23.370;2023-07-31T11:18:30;94167.81;;;28.32;67.92
5879;BME280;2965;42.640;23.370;2023-07-31T11:20:55;94168.31;;;28.70;65.18
5879;BME280;2965;42.640;23.370;2023-07-31T11:23:22;94169.75;;;28.54;64.06
5879;BME280;2965;42.640;23.370;2023-07-31T11:25:47;94172.81;;;28.11;66.23
5879;BME280;2965;42.640;23.370;2023-07-31T11:28:15;94168.44;;;27.60;67.65
5879;BME280;2965;42.640;23.370;2023-07-31T11:30:42;94178.28;;;27.37;71.44
5879;BME280;2965;42.640;23.370;2023-07-31T11:33:10;94175.63;;;27.78;66.37
5879;BME280;2965;42.640;23.370;2023-07-31T11:35:44;94171.84;;;28.07;64.08
5879;BME280;2965;42.640;23.370;2023-07-31T11:38:11;94167.25;;;28.35;64.48
5879;BME280;2965;42.640;23.370;2023-07-31T11:40:44;94168.50;;;28.24;64.69
5879;BME280;2965;42.640;23.370;2023-07-31T11:43:10;94167.84;;;28.18;64.71
5879;BME280;2965;42.640;23.370;2023-07-31T11:45:37;94166.06;;;28.00;64.97
5879;BME280;2965;42.640;23.370;2023-07-31T11:48:04;94152.53;;;28.05;64.93
5879;BME280;2965;42.640;23.370;2023-07-31T11:50:33;94157.09;;;28.18;66.08
5879;BME280;2965;42.640;23.370;2023-07-31T11:53:03;94162.06;;;28.38;66.24
5879;BME280;2965;42.640;23.370;2023-07-31T11:55:32;94163.69;;;28.12;68.95
5879;BME280;2965;42.640;23.370;2023-07-31T11:57:58;94160.97;;;27.71;69.11
5879;BME280;2965;42.640;23.370;2023-07-31T12:00:25;94159.81;;;27.90;70.63
5879;BME280;2965;42.640;23.370;2023-07-31T12:05:24;94164.44;;;28.99;63.15
5879;BME280;2965;42.640;23.370;2023-07-31T12:07:51;94168.19;;;29.20;62.17
5879;BME280;2965;42.640;23.370;2023-07-31T12:10:27;94151.56;;;29.18;63.09
5879;BME280;2965;42.640;23.370;2023-07-31T12:13:02;94145.03;;;29.41;60.38
5879;BME280;2965;42.640;23.370;2023-07-31T12:15:39;94143.44;;;29.72;61.18
5879;BME280;2965;42.640;23.370;2023-07-31T12:18:06;94150.34;;;30.04;60.57
5879;BME280;2965;42.640;23.370;2023-07-31T12:20:32;94147.50;;;30.09;58.94
5879;BME280;2965;42.640;23.370;2023-07-31T12:22:58;94133.59;;;30.24;57.32
5879;BME280;2965;42.640;23.370;2023-07-31T12:25:32;94131.03;;;30.71;60.40
5879;BME280;2965;42.640;23.370;2023-07-31T12:27:58;94151.00;;;29.61;59.34
5879;BME280;2965;42.640;23.370;2023-07-31T12:30:32;94142.38;;;29.19;61.39
5879;BME280;2965;42.640;23.370;2023-07-31T12:33:03;94132.75;;;28.96;62.59
5879;BME280;2965;42.640;23.370;2023-07-31T12:35:35;94134.31;;;29.19;65.17
5879;BME280;2965;42.640;23.370;2023-07-31T12:38:01;94140.81;;;29.18;65.80
5879;BME280;2965;42.640;23.370;2023-07-31T12:40:27;94128.31;;;29.22;66.93
5879;BME280;2965;42.640;23.370;2023-07-31T12:42:52;94132.31;;;29.33;66.40
5879;BME280;2965;42.640;23.370;2023-07-31T12:45:18;94140.00;;;29.49;66.62
5879;BME280;2965;42.640;23.370;2023-07-31T12:47:43;94137.41;;;29.44;63.45
5879;BME280;2965;42.640;23.370;2023-07-31T12:50:09;94124.41;;;28.83;64.85
5879;BME280;2965;42.640;23.370;2023-07-31T12:52:34;94130.91;;;28.60;64.04
5879;BME280;2965;42.640;23.370;2023-07-31T12:55:00;94126.91;;;28.21;65.06
5879;BME280;2965;42.640;23.370;2023-07-31T12:57:25;94123.84;;;28.14;66.20
5879;BME280;2965;42.640;23.370;2023-07-31T12:59:51;94118.72;;;27.90;65.68
5879;BME280;2965;42.640;23.370;2023-07-31T13:02:16;94114.31;;;28.08;65.67
5879;BME280;2965;42.640;23.370;2023-07-31T13:04:41;94111.66;;;28.30;64.55
5879;BME280;2965;42.640;23.370;2023-07-31T13:07:07;94109.31;;;28.01;64.55
5879;BME280;2965;42.640;23.370;2023-07-31T13:09:32;94103.69;;;27.75;64.97
5879;BME280;2965;42.640;23.370;2023-07-31T13:11:58;94109.16;;;27.84;66.20
5879;BME280;2965;42.640;23.370;2023-07-31T13:14:23;94110.91;;;28.16;66.04
5879;BME280;2965;42.640;23.370;2023-07-31T13:16:49;94111.44;;;28.63;62.68
5879;BME280;2965;42.640;23.370;2023-07-31T13:19:14;94103.88;;;28.87;63.33
5879;BME280;2965;42.640;23.370;2023-07-31T13:21:39;94114.13;;;28.85;65.45
5879;BME280;2965;42.640;23.370;2023-07-31T13:24:05;94119.84;;;28.25;64.98
5879;BME280;2965;42.640;23.370;2023-07-31T13:26:30;94104.22;;;27.77;66.38
5879;BME280;2965;42.640;23.370;2023-07-31T13:28:56;94103.34;;;28.04;65.82
5879;BME280;2965;42.640;23.370;2023-07-31T13:31:21;94101.56;;;28.00;66.43
5879;BME280;2965;42.640;23.370;2023-07-31T13:33:47;94110.91;;;28.16;64.63
5879;BME280;2965;42.640;23.370;2023-07-31T13:36:12;94108.09;;;28.21;65.87
5879;BME280;2965;42.640;23.370;2023-07-31T13:38:39;94127.44;;;28.46;64.20
5879;BME280;2965;42.640;23.370;2023-07-31T13:41:04;94121.22;;;28.81;61.56
5879;BME280;2965;42.640;23.370;2023-07-31T13:43:30;94114.78;;;28.60;60.69
5879;BME280;2965;42.640;23.370;2023-07-31T13:45:56;94119.28;;;28.73;60.78
5879;BME280;2965;42.640;23.370;2023-07-31T13:48:21;94118.75;;;29.16;60.78
5879;BME280;2965;42.640;23.370;2023-07-31T13:50:47;94125.44;;;29.19;60.89
5879;BME280;2965;42.640;23.370;2023-07-31T13:53:12;94117.13;;;29.06;59.42
5879;BME280;2965;42.640;23.370;2023-07-31T13:55:37;94125.69;;;29.08;59.33
5879;BME280;2965;42.640;23.370;2023-07-31T13:58:03;94122.69;;;29.10;59.25
5879;BME280;2965;42.640;23.370;2023-07-31T14:00:28;94111.47;;;29.16;61.39
5879;BME280;2965;42.640;23.370;2023-07-31T14:02:54;94120.31;;;29.48;58.46
5879;BME280;2965;42.640;23.370;2023-07-31T14:05:20;94108.78;;;29.16;59.14
5879;BME280;2965;42.640;23.370;2023-07-31T14:07:45;94103.19;;;29.35;60.58
5879;BME280;2965;42.640;23.370;2023-07-31T14:10:11;94108.56;;;29.35;59.91
5879;BME280;2965;42.640;23.370;2023-07-31T14:12:36;94113.69;;;29.46;63.04
5879;BME280;2965;42.640;23.370;2023-07-31T14:15:02;94113.78;;;28.78;59.94
5879;BME280;2965;42.640;23.370;2023-07-31T14:17:28;94108.50;;;28.51;60.92
5879;BME280;2965;42.640;23.370;2023-07-31T14:19:53;94108.63;;;28.46;60.72
5879;BME280;2965;42.640;23.370;2023-07-31T14:22:31;94112.81;;;28.52;60.27
5879;BME280;2965;42.640;23.370;2023-07-31T14:24:58;94109.75;;;28.67;60.73
5879;BME280;2965;42.640;23.370;2023-07-31T14:27:24;94109.38;;;28.60;62.65
5879;BME280;2965;42.640;23.370;2023-07-31T14:29:49;94108.81;;;28.49;62.12
5879;BME280;2965;42.640;23.370;2023-07-31T14:32:15;94104.06;;;28.32;63.70
5879;BME280;2965;42.640;23.370;2023-07-31T14:34:40;94105.72;;;28.78;61.80
5879;BME280;2965;42.640;23.370;2023-07-31T14:37:06;94120.25;;;29.22;62.41
5879;BME280;2965;42.640;23.370;2023-07-31T14:39:31;94117.91;;;29.69;61.31
5879;BME280;2965;42.640;23.370;2023-07-31T14:41:56;94099.56;;;30.06;61.20
5879;BME280;2965;42.640;23.370;2023-07-31T14:44:22;94109.09;;;29.95;59.82
5879;BME280;2965;42.640;23.370;2023-07-31T14:46:47;94097.38;;;30.08;60.23
5879;BME280;2965;42.640;23.370;2023-07-31T14:49:13;94105.25;;;29.78;58.67
5879;BME280;2965;42.640;23.370;2023-07-31T14:51:38;94111.81;;;29.55;61.12
5879;BME280;2965;42.640;23.370;2023-07-31T14:54:03;94116.69;;;29.92;60.50
5879;BME280;2965;42.640;23.370;2023-07-31T14:56:29;94102.94;;;30.03;60.93
5879;BME280;2965;42.640;23.370;2023-07-31T14:58:54;94108.06;;;30.30;60.14
5879;BME280;2965;42.640;23.370;2023-07-31T15:01:19;94102.94;;;30.63;58.09
5879;BME280;2965;42.640;23.370;2023-07-31T15:03:45;94105.97;;;30.62;58.21
5879;BME280;2965;42.640;23.370;2023-07-31T15:06:10;94114.56;;;30.81;59.09
5879;BME280;2965;42.640;23.370;2023-07-31T15:08:38;94118.69;;;30.87;59.05
5879;BME280;2965;42.640;23.370;2023-07-31T15:11:03;94109.28;;;30.94;60.11
5879;BME280;2965;42.640;23.370;2023-07-31T15:13:28;94114.41;;;30.69;58.78
5879;BME280;2965;42.640;23.370;2023-07-31T15:15:54;94111.38;;;30.62;62.45
5879;BME280;2965;42.640;23.370;2023-07-31T15:18:21;94106.84;;;29.97;61.38
5879;BME280;2965;42.640;23.370;2023-07-31T15:20:46;94105.59;;;29.85;62.37
5879;BME280;2965;42.640;23.370;2023-07-31T15:23:12;94115.97;;;30.27;60.87
5879;BME280;2965;42.640;23.370;2023-07-31T15:25:37;94106.00;;;29.30;62.58
5879;BME280;2965;42.640;23.370;2023-07-31T15:28:03;94103.53;;;29.11;64.18
5879;BME280;2965;42.640;23.370;2023-07-31T15:30:30;94111.25;;;28.37;66.88
5879;BME280;2965;42.640;23.370;2023-07-31T15:32:55;94112.94;;;27.97;68.97
5879;BME280;2965;42.640;23.370;2023-07-31T15:35:21;94110.38;;;27.78;70.47
5879;BME280;2965;42.640;23.370;2023-07-31T15:37:47;94118.53;;;27.59;71.27
5879;BME280;2965;42.640;23.370;2023-07-31T15:40:12;94116.22;;;27.94;70.60
5879;BME280;2965;42.640;23.370;2023-07-31T15:42:37;94113.34;;;27.90;71.18
5879;BME280;2965;42.640;23.370;2023-07-31T15:45:06;94109.94;;;27.29;73.74
5879;BME280;2965;42.640;23.370;2023-07-31T15:47:31;94120.38;;;27.45;73.17
5879;BME280;2965;42.640;23.370;2023-07-31T15:49:57;94120.69;;;27.57;70.53
5879;BME280;2965;42.640;23.370;2023-07-31T15:52:22;94127.41;;;27.13;72.28
5879;BME280;2965;42.640;23.370;2023-07-31T15:54:48;94118.38;;;26.76;75.17
5879;BME280;2965;42.640;23.370;2023-07-31T15:57:13;94128.63;;;26.55;76.06
5879;BME280;2965;42.640;23.370;2023-07-31T15:59:38;94126.88;;;26.64;76.57
5879;BME280;2965;42.640;23.370;2023-07-31T16:02:04;94126.25;;;26.54;76.27
5879;BME280;2965;42.640;23.370;2023-07-31T16:04:29;94124.22;;;26.46;77.07
5879;BME280;2965;42.640;23.370;2023-07-31T16:06:55;94122.03;;;26.66;76.27
5879;BME280;2965;42.640;23.370;2023-07-31T16:09:20;94126.91;;;26.78;75.50
5879;BME280;2965;42.640;23.370;2023-07-31T16:11:47;94132.44;;;26.68;77.02
5879;BME280;2965;42.640;23.370;2023-07-31T16:14:12;94128.78;;;26.26;77.84
5879;BME280;2965;42.640;23.370;2023-07-31T16:16:37;94137.41;;;26.23;78.66
5879;BME280;2965;42.640;23.370;2023-07-31T16:19:03;94141.00;;;26.70;76.22
5879;BME280;2965;42.640;23.370;2023-07-31T16:21:29;94130.53;;;26.87;74.70
5879;BME280;2965;42.640;23.370;2023-07-31T16:23:54;94135.16;;;27.01;74.16
5879;BME280;2965;42.640;23.370;2023-07-31T16:26:20;94138.28;;;27.22;73.95
5879;BME280;2965;42.640;23.370;2023-07-31T16:28:45;94145.34;;;27.31;72.86
5879;BME280;2965;42.640;23.370;2023-07-31T16:31:11;94141.38;;;27.42;73.23
5879;BME280;2965;42.640;23.370;2023-07-31T16:33:36;94139.00;;;27.41;73.17
5879;BME280;2965;42.640;23.370;2023-07-31T16:36:01;94144.13;;;27.10;74.86
5879;BME280;2965;42.640;23.370;2023-07-31T16:38:27;94147.53;;;26.64;72.79
5879;BME280;2965;42.640;23.370;2023-07-31T16:40:52;94149.06;;;26.51;72.58
5879;BME280;2965;42.640;23.370;2023-07-31T16:43:18;94148.34;;;26.46;73.33
5879;BME280;2965;42.640;23.370;2023-07-31T16:45:43;94145.50;;;26.56;72.83
5879;BME280;2965;42.640;23.370;2023-07-31T16:48:08;94153.63;;;26.51;74.34
5879;BME280;2965;42.640;23.370;2023-07-31T16:50:34;94158.69;;;26.33;75.16
5879;BME280;2965;42.640;23.370;2023-07-31T16:52:59;94160.41;;;26.24;73.96
5879;BME280;2965;42.640;23.370;2023-07-31T16:55:25;94166.38;;;26.21;73.06
5879;BME280;2965;42.640;23.370;2023-07-31T16:57:50;94170.97;;;25.97;73.80
5879;BME280;2965;42.640;23.370;2023-07-31T17:00:15;94174.19;;;25.99;73.95
5879;BME280;2965;42.640;23.370;2023-07-31T17:02:41;94170.56;;;26.27;73.82
5879;BME280;2965;42.640;23.370;2023-07-31T17:05:07;94173.19;;;26.32;73.53
5879;BME280;2965;42.640;23.370;2023-07-31T17:07:33;94168.53;;;26.19;73.80
5879;BME280;2965;42.640;23.370;2023-07-31T17:09:58;94176.28;;;26.21;75.00
5879;BME280;2965;42.640;23.370;2023-07-31T17:12:24;94180.28;;;26.23;74.17
5879;BME280;2965;42.640;23.370;2023-07-31T17:14:49;94178.53;;;26.32;72.91
5879;BME280;2965;42.640;23.370;2023-07-31T17:17:14;94180.72;;;26.30;73.05
5879;BME280;2965;42.640;23.370;2023-07-31T17:19:40;94177.81;;;26.08;71.88